createdAt,value
2019-05-02T00:00:55.674Z,53.47
2019-05-02T00:03:26.263Z,52.03
2019-05-02T00:05:56.368Z,55.80
2019-05-02T00:08:29.323Z,53.20
2019-05-02T00:10:56.546Z,53.23
2019-05-02T00:13:26.776Z,52.73
2019-05-02T00:15:56.374Z,53.47
2019-05-02T00:18:25.874Z,53.53
2019-05-02T00:20:57.028Z,50.90
2019-05-02T00:23:29.536Z,51.37
2019-05-02T00:25:58.856Z,51.90
2019-05-02T00:28:27.890Z,52.27
2019-05-02T00:30:57.330Z,50.63
2019-05-02T00:33:29.201Z,50.00
2019-05-02T00:35:57.714Z,51.87
2019-05-02T00:38:33.385Z,52.20
2019-05-02T00:41:02.587Z,52.00
2019-05-02T00:43:36.628Z,49.60
2019-05-02T00:46:06.125Z,48.17
2019-05-02T00:48:42.788Z,49.67
2019-05-02T00:51:14.476Z,49.47
2019-05-02T00:53:44.493Z,48.53
2019-05-02T00:56:14.264Z,47.20
2019-05-02T00:58:44.928Z,48.63
2019-05-02T01:01:38.836Z,48.27
2019-05-02T01:04:29.013Z,45.33
2019-05-02T01:07:01.376Z,44.00
2019-05-02T01:09:33.480Z,36.57
2019-05-02T01:12:03.264Z,37.70
2019-05-02T01:14:34.758Z,42.90
2019-05-02T01:17:04.210Z,37.43
2019-05-02T01:19:33.550Z,43.63
2019-05-02T01:22:02.568Z,44.17
2019-05-02T01:24:39.427Z,44.43
2019-05-02T01:27:22.720Z,45.17
2019-05-02T01:30:01.681Z,46.33
2019-05-02T01:32:47.558Z,45.50
2019-05-02T01:35:26.964Z,45.27
2019-05-02T01:38:15.252Z,44.07
2019-05-02T01:40:53.219Z,42.87
2019-05-02T01:43:25.591Z,46.93
2019-05-02T01:45:56.602Z,41.27
2019-05-02T01:48:25.968Z,45.53
2019-05-02T01:50:55.686Z,45.50
2019-05-02T01:53:29.338Z,46.97
2019-05-02T01:55:59.338Z,47.60
2019-05-02T01:58:28.836Z,48.13
2019-05-02T02:01:01.288Z,48.13
2019-05-02T02:03:30.307Z,45.73
2019-05-02T02:06:02.785Z,45.53
2019-05-02T02:08:33.809Z,45.27
2019-05-02T02:11:03.466Z,48.70
2019-05-02T02:13:36.396Z,49.30
2019-05-02T02:16:06.745Z,48.30
2019-05-02T02:18:42.144Z,51.13
2019-05-02T02:21:43.327Z,48.13
2019-05-02T02:24:21.241Z,47.33
2019-05-02T02:26:49.920Z,45.17
2019-05-02T02:29:20.841Z,47.97
2019-05-02T02:31:50.181Z,49.07
2019-05-02T02:34:21.189Z,47.73
2019-05-02T02:36:50.318Z,49.63
2019-05-02T02:39:19.349Z,43.27
2019-05-02T02:41:52.286Z,46.00
2019-05-02T02:44:40.021Z,43.37
2019-05-02T02:47:11.961Z,42.77
2019-05-02T02:49:42.343Z,44.60
2019-05-02T02:52:11.538Z,43.40
2019-05-02T02:54:43.529Z,47.30
2019-05-02T02:57:20.871Z,48.00
2019-05-02T02:59:42.471Z,45.83
2019-05-02T03:02:13.605Z,46.30
2019-05-02T03:04:45.979Z,46.37
2019-05-02T03:07:24.503Z,51.60
2019-05-02T03:09:45.259Z,52.30
2019-05-02T03:12:36.278Z,54.57
2019-05-02T03:15:06.945Z,53.13
2019-05-02T03:17:36.015Z,48.30
2019-05-02T03:20:05.643Z,46.93
2019-05-02T03:22:41.386Z,43.67
2019-05-02T03:25:05.660Z,43.57
2019-05-02T03:27:37.156Z,46.87
2019-05-02T03:30:06.124Z,48.23
2019-05-02T03:32:36.928Z,49.23
2019-05-02T03:35:06.152Z,51.13
2019-05-02T03:37:35.201Z,48.70
2019-05-02T03:40:04.310Z,44.17
2019-05-02T03:42:45.170Z,43.10
2019-05-02T03:45:11.062Z,45.80
2019-05-02T03:47:43.706Z,49.57
2019-05-02T03:50:13.074Z,47.10
2019-05-02T03:52:46.290Z,48.83
2019-05-02T03:55:13.451Z,46.27
2019-05-02T03:57:43.685Z,48.50
2019-05-02T04:00:20.174Z,50.20
2019-05-02T04:02:44.275Z,51.77
2019-05-02T04:05:13.595Z,49.17
2019-05-02T04:07:43.151Z,54.90
2019-05-02T04:10:19.747Z,53.77
2019-05-02T04:12:53.047Z,56.80
2019-05-02T04:15:17.742Z,53.03
2019-05-02T04:17:48.638Z,55.67
2019-05-02T04:20:19.403Z,56.23
2019-05-02T04:22:50.669Z,56.43
2019-05-02T04:25:19.914Z,57.20
2019-05-02T04:27:50.948Z,52.50
2019-05-02T04:30:20.199Z,54.43
2019-05-02T04:32:55.846Z,54.20
2019-05-02T04:35:28.857Z,54.67
2019-05-02T04:38:00.973Z,54.43
2019-05-02T04:40:28.684Z,56.03
2019-05-02T04:43:02.039Z,55.13
2019-05-02T04:45:50.909Z,54.87
2019-05-02T04:48:04.082Z,53.37
2019-05-02T04:50:32.227Z,53.97
2019-05-02T04:53:01.281Z,53.97
2019-05-02T04:55:33.587Z,56.97
2019-05-02T04:58:03.218Z,56.77
2019-05-02T05:00:32.298Z,57.60
2019-05-02T05:03:07.238Z,56.33
2019-05-02T05:05:37.695Z,57.07
2019-05-02T05:08:07.748Z,56.83
2019-05-02T05:10:41.527Z,56.50
2019-05-02T05:13:12.134Z,56.17
2019-05-02T05:15:48.486Z,55.93
2019-05-02T05:18:14.277Z,57.20
2019-05-02T05:20:46.007Z,55.60
2019-05-02T05:23:18.267Z,56.57
2019-05-02T05:25:55.768Z,56.47
2019-05-02T05:28:22.676Z,56.30
2019-05-02T05:30:52.249Z,58.83
2019-05-02T05:33:22.164Z,58.37
2019-05-02T05:35:52.740Z,59.13
2019-05-02T05:38:22.939Z,59.60
2019-05-02T05:40:52.767Z,58.93
2019-05-02T05:43:21.809Z,60.47
2019-05-02T05:45:56.383Z,58.07
2019-05-02T05:48:21.637Z,56.83
2019-05-02T05:50:50.701Z,55.67
2019-05-02T05:53:21.973Z,56.83
2019-05-02T05:55:53.593Z,54.87
2019-05-02T05:58:22.213Z,55.53
2019-05-02T06:00:55.425Z,55.17
2019-05-02T06:03:22.399Z,58.47
2019-05-02T06:05:51.859Z,55.97
2019-05-02T06:08:21.175Z,57.27
2019-05-02T06:10:50.627Z,56.50
2019-05-02T06:13:19.644Z,51.77
2019-05-02T06:16:01.660Z,54.57
2019-05-02T06:18:20.127Z,54.43
2019-05-02T06:20:49.169Z,54.57
2019-05-02T06:23:18.221Z,55.70
2019-05-02T06:25:47.285Z,52.70
2019-05-02T06:28:16.303Z,55.57
2019-05-02T06:30:45.441Z,53.30
2019-05-02T06:33:14.543Z,56.83
2019-05-02T06:35:43.547Z,51.53
2019-05-02T06:38:12.629Z,52.83
2019-05-02T06:40:44.738Z,55.37
2019-05-02T06:43:16.864Z,53.80
2019-05-02T06:45:46.209Z,56.00
2019-05-02T06:48:17.781Z,53.50
2019-05-02T06:50:47.809Z,51.80
2019-05-02T06:53:16.833Z,54.00
2019-05-02T06:55:45.881Z,55.50
2019-05-02T06:58:16.944Z,55.33
2019-05-02T07:00:57.361Z,54.67
2019-05-02T07:03:17.708Z,54.13
2019-05-02T07:05:49.146Z,53.47
2019-05-02T07:08:19.042Z,53.67
2019-05-02T07:10:48.083Z,54.90
2019-05-02T07:13:17.254Z,51.77
2019-05-02T07:16:02.102Z,56.00
2019-05-02T07:18:35.393Z,50.30
2019-05-02T07:21:12.130Z,52.77
2019-05-02T07:23:39.307Z,50.67
2019-05-02T07:26:08.374Z,49.10
2019-05-02T07:28:40.461Z,50.77
2019-05-02T07:31:12.115Z,52.07
2019-05-02T07:33:41.417Z,51.63
2019-05-02T07:36:10.432Z,52.13
2019-05-02T07:38:39.786Z,53.10
2019-05-02T07:41:09.120Z,50.77
2019-05-02T07:43:38.366Z,51.43
2019-05-02T07:46:07.433Z,50.03
2019-05-02T07:48:38.986Z,50.17
2019-05-02T07:51:08.032Z,51.53
2019-05-02T07:53:37.805Z,52.07
2019-05-02T07:56:06.951Z,54.47
2019-05-02T07:58:38.485Z,49.20
2019-05-02T08:01:13.515Z,50.90
2019-05-02T08:03:45.783Z,49.40
2019-05-02T08:06:17.657Z,48.40
2019-05-02T08:08:46.677Z,47.43
2019-05-02T08:11:16.200Z,48.00
2019-05-02T08:13:49.465Z,46.77
2019-05-02T08:16:16.059Z,46.03
2019-05-02T08:18:45.553Z,46.30
2019-05-02T08:21:14.623Z,45.53
2019-05-02T08:23:43.669Z,48.83
2019-05-02T08:26:16.436Z,41.73
2019-05-02T08:28:51.870Z,42.47
2019-05-02T08:31:21.007Z,42.83
2019-05-02T08:33:50.138Z,41.87
2019-05-02T08:36:20.900Z,41.30
2019-05-02T08:38:53.587Z,39.50
2019-05-02T08:41:21.476Z,40.40
2019-05-02T08:43:51.249Z,42.40
2019-05-02T08:46:20.360Z,41.43
2019-05-02T08:48:50.817Z,43.23
2019-05-02T08:51:20.035Z,43.83
2019-05-02T08:53:52.054Z,41.60
2019-05-02T08:56:21.337Z,43.60
2019-05-02T08:58:51.207Z,41.37
2019-05-02T09:01:20.276Z,42.07
2019-05-02T09:03:55.049Z,43.73
2019-05-02T09:06:22.398Z,41.93
2019-05-02T09:08:52.883Z,42.83
2019-05-02T09:11:21.947Z,42.90
2019-05-02T09:13:52.604Z,43.40
2019-05-02T09:16:28.838Z,40.87
2019-05-02T09:18:54.146Z,43.43
2019-05-02T09:21:26.605Z,41.60
2019-05-02T09:23:54.256Z,41.30
2019-05-02T09:26:35.086Z,40.23
2019-05-02T09:28:56.321Z,39.27
2019-05-02T09:31:25.149Z,39.90
2019-05-02T09:33:55.695Z,38.20
2019-05-02T09:36:25.274Z,37.60
2019-05-02T09:38:57.889Z,35.97
2019-05-02T09:41:32.500Z,33.93
2019-05-02T09:43:59.598Z,35.37
2019-05-02T09:46:28.775Z,33.37
2019-05-02T09:49:04.335Z,33.60
2019-05-02T09:51:28.922Z,37.23
2019-05-02T09:54:02.594Z,42.37
2019-05-02T09:56:29.160Z,37.40
2019-05-02T09:59:06.198Z,35.20
2019-05-02T10:01:36.133Z,36.37
2019-05-02T10:04:07.431Z,35.27
2019-05-02T10:06:36.525Z,37.30
2019-05-02T10:09:07.908Z,34.17
2019-05-02T10:11:37.006Z,35.10
2019-05-02T10:14:06.505Z,38.17
2019-05-02T10:16:37.746Z,34.43
2019-05-02T10:19:10.676Z,34.20
2019-05-02T10:21:37.885Z,32.93
2019-05-02T10:24:09.821Z,26.53
2019-05-02T10:26:38.894Z,25.10
2019-05-02T10:29:08.403Z,22.20
2019-05-02T10:31:38.056Z,23.30
2019-05-02T10:34:08.563Z,20.93
2019-05-02T10:36:38.430Z,20.87
2019-05-02T10:39:08.315Z,20.60
2019-05-02T10:41:39.486Z,19.93
2019-05-02T10:44:08.109Z,21.00
2019-05-02T10:47:03.882Z,20.70
2019-05-02T10:49:57.709Z,20.87
2019-05-02T10:52:32.163Z,19.77
2019-05-02T10:54:58.179Z,19.53
2019-05-02T10:57:27.515Z,17.80
2019-05-02T10:59:56.742Z,20.27
2019-05-02T11:02:44.512Z,20.13
2019-05-02T11:05:21.822Z,21.27
2019-05-02T11:07:47.915Z,22.43
2019-05-02T11:10:18.127Z,22.40
2019-05-02T11:12:57.153Z,22.77
2019-05-02T11:15:43.754Z,21.33
2019-05-02T11:18:13.317Z,21.23
2019-05-02T11:20:42.676Z,20.13
2019-05-02T11:23:12.747Z,18.27
2019-05-02T11:25:42.187Z,21.00
2019-05-02T11:28:12.468Z,19.93
2019-05-02T11:30:42.053Z,22.97
2019-05-02T11:33:13.460Z,23.20
2019-05-02T11:35:49.191Z,22.90
2019-05-02T11:38:16.115Z,24.03
2019-05-02T11:40:43.726Z,23.00
2019-05-02T11:43:12.953Z,25.27
2019-05-02T11:45:42.487Z,23.20
2019-05-02T11:48:13.946Z,25.13
2019-05-02T11:50:42.763Z,25.03
2019-05-02T11:53:23.258Z,21.23
2019-05-02T11:55:43.857Z,24.47
2019-05-02T11:58:13.092Z,25.37
2019-05-02T12:00:48.017Z,26.10
2019-05-02T12:03:22.010Z,23.70
2019-05-02T12:05:52.446Z,24.23
2019-05-02T12:08:22.614Z,21.57
2019-05-02T12:10:52.055Z,20.80
2019-05-02T12:13:22.668Z,22.20
2019-05-02T12:15:52.232Z,21.10
2019-05-02T12:18:23.366Z,22.43
2019-05-02T12:20:52.474Z,21.30
2019-05-02T12:23:22.677Z,23.70
2019-05-02T12:25:52.146Z,24.10
2019-05-02T12:28:22.910Z,21.07
2019-05-02T12:30:54.273Z,22.00
2019-05-02T12:33:25.400Z,24.87
2019-05-02T12:35:58.780Z,26.43
2019-05-02T12:38:28.263Z,25.83
2019-05-02T12:40:57.988Z,23.87
2019-05-02T12:43:27.664Z,24.93
2019-05-02T12:45:56.886Z,27.50
2019-05-02T12:48:26.323Z,29.27
2019-05-02T12:50:58.798Z,29.53
2019-05-02T12:53:27.907Z,29.33
2019-05-02T12:55:56.941Z,30.57
2019-05-02T12:58:26.452Z,32.03
2019-05-02T13:00:55.564Z,25.67
2019-05-02T13:03:52.699Z,32.23
2019-05-02T13:06:24.584Z,28.07
2019-05-02T13:08:53.604Z,31.97
2019-05-02T13:11:42.205Z,32.53
2019-05-02T13:14:16.827Z,28.13
2019-05-02T13:16:40.388Z,33.40
2019-05-02T13:19:09.437Z,33.93
2019-05-02T13:21:50.110Z,33.63
2019-05-02T13:24:29.361Z,35.90
2019-05-02T13:26:59.514Z,34.90
2019-05-02T13:29:28.884Z,34.63
2019-05-02T13:32:08.744Z,33.70
2019-05-02T13:34:44.012Z,33.40
2019-05-02T13:37:16.862Z,34.17
2019-05-02T13:40:02.369Z,33.37
2019-05-02T13:42:31.322Z,31.77
2019-05-02T13:45:06.284Z,29.47
2019-05-02T13:47:35.409Z,32.87
2019-05-02T13:50:09.105Z,30.00
2019-05-02T13:52:38.130Z,27.73
2019-05-02T13:55:09.146Z,30.67
2019-05-02T13:57:43.122Z,29.87
2019-05-02T14:00:12.662Z,29.10
2019-05-02T14:02:42.817Z,29.80
2019-05-02T14:05:13.039Z,25.67
2019-05-02T14:07:48.137Z,25.67
2019-05-02T14:10:23.080Z,19.10
2019-05-02T14:13:03.278Z,19.80
2019-05-02T14:15:37.138Z,20.00
2019-05-02T14:18:06.474Z,18.25
2019-05-02T14:20:37.447Z,17.57
2019-05-02T14:23:07.272Z,19.50
2019-05-02T14:25:37.358Z,16.23
2019-05-02T14:28:06.803Z,17.85
2019-05-02T14:30:41.807Z,17.80
2019-05-02T14:33:14.887Z,15.18
2019-05-02T14:35:44.442Z,15.78
2019-05-02T14:38:14.638Z,16.32
2019-05-02T14:40:54.316Z,17.20
2019-05-02T14:43:44.488Z,14.07
2019-05-02T14:46:12.655Z,14.50
2019-05-02T14:48:45.297Z,13.20
2019-05-02T14:51:25.845Z,13.28
2019-05-02T14:53:49.586Z,13.80
2019-05-02T14:56:51.994Z,13.68
2019-05-02T14:59:22.683Z,12.00
2019-05-02T15:01:57.759Z,11.03
2019-05-02T15:04:25.648Z,12.65
2019-05-02T15:06:55.022Z,12.15
2019-05-02T15:09:26.726Z,12.63
2019-05-02T15:12:13.547Z,11.10
2019-05-02T15:14:35.860Z,11.95
2019-05-02T15:17:08.242Z,12.23
2019-05-02T15:19:37.597Z,12.23
2019-05-02T15:22:07.068Z,11.15
2019-05-02T15:24:37.924Z,12.58
2019-05-02T15:27:12.203Z,11.35
2019-05-02T15:29:38.083Z,12.13
2019-05-02T15:32:32.594Z,12.33
2019-05-02T15:35:13.010Z,14.83
2019-05-02T15:37:42.679Z,11.60
2019-05-02T15:40:46.759Z,11.53
2019-05-02T15:42:52.150Z,12.05
2019-05-02T15:45:23.824Z,11.08
2019-05-02T15:47:52.778Z,10.35
2019-05-02T15:50:25.518Z,10.20
2019-05-02T15:53:10.051Z,10.35
2019-05-02T15:55:40.137Z,10.13
2019-05-02T15:58:17.110Z,9.35
2019-05-02T16:00:52.041Z,9.25
2019-05-02T16:03:23.651Z,9.10
2019-05-02T16:05:53.034Z,9.45
2019-05-02T16:08:22.183Z,9.48
2019-05-02T16:10:54.410Z,9.05
2019-05-02T16:13:23.766Z,7.45
2019-05-02T16:15:57.174Z,8.68
2019-05-02T16:18:23.546Z,8.70
2019-05-02T16:21:05.574Z,8.35
2019-05-02T16:23:35.634Z,7.33
2019-05-02T16:26:06.436Z,7.55
2019-05-02T16:28:36.958Z,7.20
2019-05-02T16:31:09.680Z,6.72
2019-05-02T16:33:39.054Z,6.78
2019-05-02T16:36:08.530Z,7.10
2019-05-02T16:38:37.898Z,7.15
2019-05-02T16:41:09.871Z,7.80
2019-05-02T16:43:38.338Z,9.43
2019-05-02T16:46:11.881Z,8.68
2019-05-02T16:48:42.619Z,8.23
2019-05-02T16:51:27.589Z,7.93
2019-05-02T16:53:42.869Z,8.63
2019-05-02T16:56:12.196Z,7.22
2019-05-02T16:58:43.394Z,8.53
2019-05-02T17:01:19.641Z,9.00
2019-05-02T17:03:43.972Z,8.83
2019-05-02T17:06:16.993Z,8.97
2019-05-02T17:08:59.783Z,9.90
2019-05-02T17:11:38.629Z,9.13
2019-05-02T17:14:11.990Z,10.57
2019-05-02T17:16:38.476Z,10.00
2019-05-02T17:19:07.511Z,9.83
2019-05-02T17:21:52.913Z,9.05
2019-05-02T17:24:12.651Z,10.33
2019-05-02T17:26:42.295Z,14.10
2019-05-02T17:29:11.943Z,12.30
2019-05-02T17:31:42.680Z,12.03
2019-05-02T17:34:14.696Z,12.20
2019-05-02T17:36:45.889Z,18.37
2019-05-02T17:39:15.080Z,12.67
2019-05-02T17:41:45.763Z,12.30
2019-05-02T17:44:18.494Z,12.17
2019-05-02T17:46:50.749Z,10.93
2019-05-02T17:49:16.481Z,15.17
2019-05-02T17:52:18.305Z,12.63
2019-05-02T17:54:42.618Z,11.07
2019-05-02T17:57:11.899Z,12.67
2019-05-02T17:59:42.223Z,11.57
2019-05-02T18:02:15.788Z,10.77
2019-05-02T18:04:46.694Z,11.63
2019-05-02T18:07:18.109Z,10.53
2019-05-02T18:09:47.247Z,11.80
2019-05-02T18:12:16.708Z,11.90
2019-05-02T18:14:45.758Z,12.40
2019-05-02T18:17:15.223Z,12.57
2019-05-02T18:19:44.275Z,11.80
2019-05-02T18:22:23.446Z,11.00
2019-05-02T18:24:46.480Z,11.37
2019-05-02T18:27:15.664Z,11.00
2019-05-02T18:29:45.718Z,10.90
2019-05-02T18:32:17.452Z,10.80
2019-05-02T18:34:45.873Z,12.33
2019-05-02T18:37:15.401Z,13.80
2019-05-02T18:39:49.855Z,22.80
2019-05-02T18:42:22.002Z,25.00
2019-05-02T18:44:48.317Z,16.23
2019-05-02T18:47:20.126Z,12.40
2019-05-02T18:49:53.742Z,12.73
2019-05-02T18:52:19.678Z,11.30
2019-05-02T18:54:51.824Z,12.43
2019-05-02T18:57:24.509Z,11.90
2019-05-02T18:59:51.944Z,12.50
2019-05-02T19:02:26.324Z,12.63
2019-05-02T19:04:53.603Z,13.03
2019-05-02T19:07:32.504Z,13.67
2019-05-02T19:09:58.951Z,13.77
2019-05-02T19:12:27.366Z,13.20
2019-05-02T19:14:57.585Z,15.73
2019-05-02T19:17:30.230Z,15.80
2019-05-02T19:19:59.293Z,14.33
2019-05-02T19:22:28.363Z,16.40
2019-05-02T19:24:58.138Z,19.33
2019-05-02T19:27:45.043Z,19.13
2019-05-02T19:30:14.397Z,20.37
2019-05-02T19:32:43.540Z,16.20
2019-05-02T19:35:12.897Z,15.73
2019-05-02T19:37:46.066Z,15.63
2019-05-02T19:40:14.983Z,16.90
2019-05-02T19:42:45.046Z,15.67
2019-05-02T19:45:16.846Z,16.83
2019-05-02T19:47:48.924Z,17.10
2019-05-02T19:50:41.659Z,16.00
2019-05-02T19:53:14.904Z,15.90
2019-05-02T19:55:38.149Z,15.57
2019-05-02T19:58:07.397Z,15.43
2019-05-02T20:00:41.500Z,15.90
2019-05-02T20:03:07.949Z,15.70
2019-05-02T20:05:37.537Z,15.70
2019-05-02T20:08:09.627Z,16.33
2019-05-02T20:10:37.654Z,16.83
2019-05-02T20:13:06.845Z,17.33
2019-05-02T20:15:42.070Z,16.60
2019-05-02T20:18:11.933Z,16.17
2019-05-02T20:21:03.640Z,17.07
2019-05-02T20:23:35.546Z,16.73
2019-05-02T20:26:04.367Z,18.77
2019-05-02T20:28:33.796Z,16.73
2019-05-02T20:31:04.165Z,18.53
2019-05-02T20:33:34.044Z,17.57
2019-05-02T20:36:03.084Z,19.00
2019-05-02T20:38:32.552Z,19.30
2019-05-02T20:41:02.954Z,19.23
2019-05-02T20:43:32.428Z,18.50
2019-05-02T20:46:02.577Z,17.90
2019-05-02T20:48:32.430Z,18.87
2019-05-02T20:51:02.681Z,19.30
2019-05-02T20:53:34.197Z,17.67
2019-05-02T20:56:04.582Z,19.53
2019-05-02T20:58:34.251Z,18.70
2019-05-02T21:01:08.438Z,18.13
2019-05-02T21:03:35.987Z,19.47
2019-05-02T21:06:12.333Z,18.67
2019-05-02T21:09:18.855Z,20.17
2019-05-02T21:11:52.670Z,19.27
2019-05-02T21:14:21.802Z,18.00
2019-05-02T21:16:51.243Z,19.73
2019-05-02T21:19:21.748Z,20.43
2019-05-02T21:21:52.609Z,21.13
2019-05-02T21:24:22.171Z,19.33
2019-05-02T21:26:52.519Z,23.30
2019-05-02T21:29:25.049Z,19.60
2019-05-02T21:31:54.883Z,18.23
2019-05-02T21:34:25.688Z,16.83
2019-05-02T21:36:55.170Z,17.10
2019-05-02T21:39:24.268Z,18.37
2019-05-02T21:41:53.352Z,18.30
2019-05-02T21:44:22.761Z,19.50
2019-05-02T21:46:52.206Z,19.30
2019-05-02T21:49:55.215Z,19.87
2019-05-02T21:52:33.370Z,20.87
2019-05-02T21:55:25.682Z,23.03
2019-05-02T21:57:55.201Z,22.03
2019-05-02T22:00:46.764Z,23.10
2019-05-02T22:03:16.112Z,24.10
2019-05-02T22:05:45.321Z,24.50
2019-05-02T22:08:14.398Z,22.77
2019-05-02T22:10:43.756Z,23.43
2019-05-02T22:13:12.838Z,24.00
2019-05-02T22:15:42.103Z,25.43
2019-05-02T22:18:13.672Z,23.97
2019-05-02T22:20:42.889Z,25.33
2019-05-02T22:23:12.059Z,23.30
2019-05-02T22:25:41.969Z,21.20
2019-05-02T22:28:12.591Z,22.23
2019-05-02T22:30:42.911Z,25.00
2019-05-02T22:33:12.834Z,22.87
2019-05-02T22:35:45.440Z,23.10
2019-05-02T22:38:39.708Z,22.97
2019-05-02T22:41:08.771Z,23.13
2019-05-02T22:43:38.146Z,22.67
2019-05-02T22:46:08.896Z,21.80
2019-05-02T22:48:38.042Z,24.53
2019-05-02T22:51:07.872Z,22.53
2019-05-02T22:53:37.372Z,24.70
2019-05-02T22:56:08.275Z,23.00
2019-05-02T22:58:37.704Z,22.50
2019-05-02T23:01:07.214Z,23.40
2019-05-02T23:03:36.303Z,22.37
2019-05-02T23:06:05.476Z,21.83
2019-05-02T23:08:35.085Z,21.97
2019-05-02T23:11:04.201Z,19.10
2019-05-02T23:13:33.287Z,19.97
2019-05-02T23:16:02.934Z,20.07
2019-05-02T23:18:32.416Z,18.43
2019-05-02T23:21:02.205Z,18.83
2019-05-02T23:23:33.021Z,18.77
2019-05-02T23:26:39.384Z,17.40
2019-05-02T23:29:09.656Z,17.77
2019-05-02T23:31:39.896Z,17.70
2019-05-02T23:34:10.724Z,17.00
2019-05-02T23:36:41.641Z,17.63
2019-05-02T23:39:12.494Z,17.37
2019-05-02T23:41:42.227Z,17.33
2019-05-02T23:44:12.273Z,17.40
2019-05-02T23:46:42.421Z,17.60
2019-05-02T23:49:12.719Z,17.33
2019-05-02T23:51:42.836Z,16.67
2019-05-02T23:54:13.035Z,15.87
2019-05-02T23:56:43.188Z,15.93
2019-05-02T23:59:12.789Z,15.00
